Center Conway, New Hampshire
Current Conditions -  °F | °C
As of 12:54 AM on Wednesday 26 Nov 2014 (Local Time) from KIZG Reporting Station
Clear Clear  
Wind Chill: 40°   Ceiling: Unl
Heat Index: 44°   Visibility: 10mi
Dew Point: 24°   Wind: 8mph
Humidity: 45%   Direction: 250°WSW
Pressure: 30.06"   Gusts: 22mph
Location:  43.99°N, 71.06°W
Report Text: KIZG 260554Z AUTO 25007G19KT 210V280 10SM CLR 07/M04 A3006 RMK AO2 SLP181 T00671044 10078 20011 51014
Loading
Personal Weather Stations






























Interactive Weather Map New forecast layout! Learn more

10-Day Weather Forecast

Advertisements
Track Severe Weather on mobile